sensor_id;sensor_type;location;lat;lon;timestamp;P1;durP1;ratioP1;P2;durP2;ratioP2
35488;SDS011;21602;55.670;37.578;2023-02-28T00:01:24;4.83;;;3.80;;
35488;SDS011;21602;55.670;37.578;2023-02-28T00:03:50;10.47;;;5.00;;
35488;SDS011;21602;55.670;37.578;2023-02-28T00:06:16;11.27;;;5.30;;
35488;SDS011;21602;55.670;37.578;2023-02-28T00:08:42;11.17;;;5.40;;
35488;SDS011;21602;55.670;37.578;2023-02-28T00:11:09;8.30;;;4.80;;
35488;SDS011;21602;55.670;37.578;2023-02-28T00:13:38;5.83;;;3.90;;
35488;SDS011;21602;55.670;37.578;2023-02-28T00:16:12;9.13;;;4.90;;
35488;SDS011;21602;55.670;37.578;2023-02-28T00:18:40;7.83;;;4.77;;
35488;SDS011;21602;55.670;37.578;2023-02-28T00:21:06;8.77;;;5.10;;
35488;SDS011;21602;55.670;37.578;2023-02-28T00:23:33;9.97;;;5.10;;
35488;SDS011;21602;55.670;37.578;2023-02-28T00:25:59;10.43;;;5.20;;
35488;SDS011;21602;55.670;37.578;2023-02-28T00:28:25;8.87;;;5.60;;
35488;SDS011;21602;55.670;37.578;2023-02-28T00:30:51;8.47;;;5.03;;
35488;SDS011;21602;55.670;37.578;2023-02-28T00:33:17;5.60;;;3.50;;
35488;SDS011;21602;55.670;37.578;2023-02-28T00:35:43;9.37;;;5.60;;
35488;SDS011;21602;55.670;37.578;2023-02-28T00:38:12;9.02;;;6.78;;
35488;SDS011;21602;55.670;37.578;2023-02-28T00:40:38;9.27;;;5.47;;
35488;SDS011;21602;55.670;37.578;2023-02-28T00:43:04;7.47;;;4.97;;
35488;SDS011;21602;55.670;37.578;2023-02-28T00:45:30;6.53;;;4.23;;
35488;SDS011;21602;55.670;37.578;2023-02-28T00:47:56;10.50;;;5.80;;
35488;SDS011;21602;55.670;37.578;2023-02-28T00:50:22;10.00;;;4.50;;
35488;SDS011;21602;55.670;37.578;2023-02-28T00:52:49;5.73;;;3.73;;
35488;SDS011;21602;55.670;37.578;2023-02-28T00:55:15;9.40;;;5.13;;
35488;SDS011;21602;55.670;37.578;2023-02-28T00:57:41;10.87;;;6.30;;
35488;SDS011;21602;55.670;37.578;2023-02-28T01:00:08;7.90;;;4.67;;
35488;SDS011;21602;55.670;37.578;2023-02-28T01:02:35;9.57;;;5.50;;
35488;SDS011;21602;55.670;37.578;2023-02-28T01:05:00;10.43;;;5.10;;
35488;SDS011;21602;55.670;37.578;2023-02-28T01:07:29;13.05;;;6.22;;
35488;SDS011;21602;55.670;37.578;2023-02-28T01:09:55;8.90;;;5.67;;
35488;SDS011;21602;55.670;37.578;2023-02-28T01:12:20;7.80;;;4.47;;
35488;SDS011;21602;55.670;37.578;2023-02-28T01:14:46;7.70;;;4.47;;
35488;SDS011;21602;55.670;37.578;2023-02-28T01:17:13;7.23;;;4.40;;
35488;SDS011;21602;55.670;37.578;2023-02-28T01:19:39;10.40;;;5.27;;
35488;SDS011;21602;55.670;37.578;2023-02-28T01:22:05;10.37;;;5.23;;
35488;SDS011;21602;55.670;37.578;2023-02-28T01:24:33;9.67;;;4.43;;
35488;SDS011;21602;55.670;37.578;2023-02-28T01:27:04;9.52;;;5.53;;
35488;SDS011;21602;55.670;37.578;2023-02-28T01:29:29;7.13;;;3.38;;
35488;SDS011;21602;55.670;37.578;2023-02-28T01:31:55;6.87;;;3.60;;
35488;SDS011;21602;55.670;37.578;2023-02-28T01:34:22;10.27;;;5.53;;
35488;SDS011;21602;55.670;37.578;2023-02-28T01:36:48;7.30;;;4.53;;
35488;SDS011;21602;55.670;37.578;2023-02-28T01:39:13;6.20;;;4.20;;
35488;SDS011;21602;55.670;37.578;2023-02-28T01:41:44;4.57;;;3.00;;
35488;SDS011;21602;55.670;37.578;2023-02-28T01:47:14;8.93;;;5.73;;
35488;SDS011;21602;55.670;37.578;2023-02-28T01:49:40;5.33;;;3.70;;
35488;SDS011;21602;55.670;37.578;2023-02-28T01:52:06;8.67;;;5.07;;
35488;SDS011;21602;55.670;37.578;2023-02-28T01:54:33;8.40;;;3.57;;
35488;SDS011;21602;55.670;37.578;2023-02-28T01:57:04;5.73;;;3.73;;
35488;SDS011;21602;55.670;37.578;2023-02-28T01:59:38;4.43;;;3.33;;
35488;SDS011;21602;55.670;37.578;2023-02-28T02:02:12;5.90;;;3.73;;
35488;SDS011;21602;55.670;37.578;2023-02-28T02:04:39;4.43;;;2.87;;
35488;SDS011;21602;55.670;37.578;2023-02-28T02:07:09;6.27;;;4.40;;
35488;SDS011;21602;55.670;37.578;2023-02-28T02:09:37;3.65;;;2.50;;
35488;SDS011;21602;55.670;37.578;2023-02-28T02:12:06;8.20;;;3.80;;
35488;SDS011;21602;55.670;37.578;2023-02-28T02:15:01;7.23;;;4.50;;
35488;SDS011;21602;55.670;37.578;2023-02-28T02:23:51;3.63;;;3.00;;
35488;SDS011;21602;55.670;37.578;2023-02-28T02:26:03;5.50;;;3.63;;
35488;SDS011;21602;55.670;37.578;2023-02-28T02:34:42;4.97;;;3.17;;
35488;SDS011;21602;55.670;37.578;2023-02-28T02:42:54;3.20;;;2.07;;
35488;SDS011;21602;55.670;37.578;2023-02-28T02:45:34;7.03;;;4.50;;
35488;SDS011;21602;55.670;37.578;2023-02-28T02:48:07;7.33;;;4.50;;
35488;SDS011;21602;55.670;37.578;2023-02-28T02:50:51;4.63;;;2.87;;
35488;SDS011;21602;55.670;37.578;2023-02-28T02:53:21;5.33;;;3.40;;
35488;SDS011;21602;55.670;37.578;2023-02-28T02:55:53;6.57;;;4.20;;
35488;SDS011;21602;55.670;37.578;2023-02-28T02:58:24;3.23;;;2.57;;
35488;SDS011;21602;55.670;37.578;2023-02-28T03:00:56;3.47;;;2.70;;
35488;SDS011;21602;55.670;37.578;2023-02-28T03:03:26;5.73;;;3.70;;
35488;SDS011;21602;55.670;37.578;2023-02-28T03:05:57;4.50;;;2.03;;
35488;SDS011;21602;55.670;37.578;2023-02-28T03:08:24;3.60;;;2.83;;
35488;SDS011;21602;55.670;37.578;2023-02-28T03:10:51;4.47;;;2.53;;
35488;SDS011;21602;55.670;37.578;2023-02-28T03:13:42;3.73;;;2.30;;
35488;SDS011;21602;55.670;37.578;2023-02-28T03:21:58;8.80;;;3.93;;
35488;SDS011;21602;55.670;37.578;2023-02-28T03:24:27;3.80;;;2.37;;
35488;SDS011;21602;55.670;37.578;2023-02-28T03:28:08;5.00;;;3.70;;
35488;SDS011;21602;55.670;37.578;2023-02-28T03:33:11;6.77;;;3.43;;
35488;SDS011;21602;55.670;37.578;2023-02-28T03:35:39;3.23;;;2.57;;
35488;SDS011;21602;55.670;37.578;2023-02-28T03:38:19;6.60;;;3.67;;
35488;SDS011;21602;55.670;37.578;2023-02-28T03:40:51;3.13;;;1.83;;
35488;SDS011;21602;55.670;37.578;2023-02-28T03:43:28;2.90;;;2.10;;
35488;SDS011;21602;55.670;37.578;2023-02-28T03:45:58;3.53;;;2.23;;
35488;SDS011;21602;55.670;37.578;2023-02-28T03:48:30;5.00;;;2.53;;
35488;SDS011;21602;55.670;37.578;2023-02-28T03:51:02;2.77;;;2.27;;
35488;SDS011;21602;55.670;37.578;2023-02-28T03:56:08;4.53;;;2.30;;
35488;SDS011;21602;55.670;37.578;2023-02-28T04:01:33;2.50;;;2.30;;
35488;SDS011;21602;55.670;37.578;2023-02-28T04:04:03;3.60;;;2.63;;
35488;SDS011;21602;55.670;37.578;2023-02-28T04:06:30;2.37;;;1.97;;
35488;SDS011;21602;55.670;37.578;2023-02-28T04:08:57;3.73;;;2.87;;
35488;SDS011;21602;55.670;37.578;2023-02-28T04:14:00;3.50;;;2.03;;
35488;SDS011;21602;55.670;37.578;2023-02-28T04:16:27;3.87;;;1.87;;
35488;SDS011;21602;55.670;37.578;2023-02-28T04:18:54;3.50;;;2.07;;
35488;SDS011;21602;55.670;37.578;2023-02-28T04:21:29;3.50;;;2.43;;
35488;SDS011;21602;55.670;37.578;2023-02-28T04:24:00;3.57;;;2.33;;
35488;SDS011;21602;55.670;37.578;2023-02-28T04:26:31;3.70;;;2.50;;
35488;SDS011;21602;55.670;37.578;2023-02-28T04:28:58;3.60;;;2.50;;
35488;SDS011;21602;55.670;37.578;2023-02-28T04:31:24;5.27;;;2.67;;
35488;SDS011;21602;55.670;37.578;2023-02-28T04:33:50;4.40;;;2.83;;
35488;SDS011;21602;55.670;37.578;2023-02-28T04:36:16;5.33;;;2.80;;
35488;SDS011;21602;55.670;37.578;2023-02-28T04:38:46;2.63;;;1.80;;
35488;SDS011;21602;55.670;37.578;2023-02-28T04:41:12;3.33;;;2.57;;
35488;SDS011;21602;55.670;37.578;2023-02-28T04:43:38;1.30;;;1.10;;
35488;SDS011;21602;55.670;37.578;2023-02-28T04:46:04;3.87;;;2.67;;
35488;SDS011;21602;55.670;37.578;2023-02-28T04:48:32;3.33;;;2.20;;
35488;SDS011;21602;55.670;37.578;2023-02-28T04:51:03;1.90;;;1.60;;
35488;SDS011;21602;55.670;37.578;2023-02-28T04:53:30;4.60;;;2.80;;
35488;SDS011;21602;55.670;37.578;2023-02-28T04:55:56;3.87;;;2.47;;
35488;SDS011;21602;55.670;37.578;2023-02-28T04:58:22;3.60;;;2.20;;
35488;SDS011;21602;55.670;37.578;2023-02-28T05:00:49;3.67;;;2.60;;
35488;SDS011;21602;55.670;37.578;2023-02-28T05:03:15;2.27;;;1.60;;
35488;SDS011;21602;55.670;37.578;2023-02-28T05:05:41;2.67;;;1.77;;
35488;SDS011;21602;55.670;37.578;2023-02-28T05:08:07;3.90;;;2.77;;
35488;SDS011;21602;55.670;37.578;2023-02-28T05:10:33;3.73;;;2.30;;
35488;SDS011;21602;55.670;37.578;2023-02-28T05:12:59;2.57;;;2.13;;
35488;SDS011;21602;55.670;37.578;2023-02-28T05:15:25;2.60;;;2.13;;
35488;SDS011;21602;55.670;37.578;2023-02-28T05:17:51;3.93;;;2.13;;
35488;SDS011;21602;55.670;37.578;2023-02-28T05:20:16;3.53;;;2.77;;
35488;SDS011;21602;55.670;37.578;2023-02-28T05:22:43;1.70;;;1.30;;
35488;SDS011;21602;55.670;37.578;2023-02-28T05:25:16;2.77;;;2.17;;
35488;SDS011;21602;55.670;37.578;2023-02-28T05:27:44;2.73;;;2.07;;
35488;SDS011;21602;55.670;37.578;2023-02-28T05:30:14;2.33;;;1.97;;
35488;SDS011;21602;55.670;37.578;2023-02-28T05:32:41;3.40;;;1.47;;
35488;SDS011;21602;55.670;37.578;2023-02-28T05:35:08;3.80;;;2.20;;
35488;SDS011;21602;55.670;37.578;2023-02-28T05:37:38;2.77;;;2.23;;
35488;SDS011;21602;55.670;37.578;2023-02-28T05:40:05;4.87;;;2.70;;
35488;SDS011;21602;55.670;37.578;2023-02-28T05:42:32;7.15;;;1.67;;
35488;SDS011;21602;55.670;37.578;2023-02-28T05:44:58;3.90;;;2.27;;
35488;SDS011;21602;55.670;37.578;2023-02-28T05:47:24;3.43;;;2.67;;
35488;SDS011;21602;55.670;37.578;2023-02-28T05:49:50;4.27;;;2.00;;
35488;SDS011;21602;55.670;37.578;2023-02-28T05:52:16;3.63;;;2.07;;
35488;SDS011;21602;55.670;37.578;2023-02-28T05:54:42;3.83;;;2.40;;
35488;SDS011;21602;55.670;37.578;2023-02-28T05:57:08;3.43;;;2.47;;
35488;SDS011;21602;55.670;37.578;2023-02-28T05:59:33;5.10;;;2.60;;
35488;SDS011;21602;55.670;37.578;2023-02-28T06:01:59;1.97;;;1.63;;
35488;SDS011;21602;55.670;37.578;2023-02-28T06:04:25;2.20;;;1.40;;
35488;SDS011;21602;55.670;37.578;2023-02-28T06:06:51;4.50;;;1.50;;
35488;SDS011;21602;55.670;37.578;2023-02-28T06:09:17;2.37;;;1.90;;
35488;SDS011;21602;55.670;37.578;2023-02-28T06:11:44;3.83;;;2.10;;
35488;SDS011;21602;55.670;37.578;2023-02-28T06:14:12;3.43;;;1.83;;
35488;SDS011;21602;55.670;37.578;2023-02-28T06:16:40;3.33;;;2.43;;
35488;SDS011;21602;55.670;37.578;2023-02-28T06:19:06;8.67;;;2.57;;
35488;SDS011;21602;55.670;37.578;2023-02-28T06:21:32;4.20;;;2.40;;
35488;SDS011;21602;55.670;37.578;2023-02-28T06:24:01;2.57;;;1.93;;
35488;SDS011;21602;55.670;37.578;2023-02-28T06:26:27;3.90;;;2.60;;
35488;SDS011;21602;55.670;37.578;2023-02-28T06:28:54;2.23;;;1.50;;
35488;SDS011;21602;55.670;37.578;2023-02-28T06:31:20;4.50;;;2.00;;
35488;SDS011;21602;55.670;37.578;2023-02-28T06:33:46;3.57;;;2.50;;
35488;SDS011;21602;55.670;37.578;2023-02-28T06:36:13;2.87;;;1.90;;
35488;SDS011;21602;55.670;37.578;2023-02-28T06:38:41;1.73;;;1.48;;
35488;SDS011;21602;55.670;37.578;2023-02-28T06:41:07;6.63;;;3.17;;
35488;SDS011;21602;55.670;37.578;2023-02-28T06:43:35;3.03;;;2.10;;
35488;SDS011;21602;55.670;37.578;2023-02-28T06:46:03;2.23;;;1.87;;
35488;SDS011;21602;55.670;37.578;2023-02-28T06:48:30;4.30;;;2.13;;
35488;SDS011;21602;55.670;37.578;2023-02-28T06:51:07;3.07;;;2.03;;
35488;SDS011;21602;55.670;37.578;2023-02-28T06:56:09;2.53;;;2.10;;
35488;SDS011;21602;55.670;37.578;2023-02-28T06:58:37;2.57;;;1.80;;
35488;SDS011;21602;55.670;37.578;2023-02-28T07:01:05;2.97;;;2.13;;
35488;SDS011;21602;55.670;37.578;2023-02-28T07:03:34;3.73;;;2.10;;
35488;SDS011;21602;55.670;37.578;2023-02-28T07:06:01;1.90;;;1.58;;
35488;SDS011;21602;55.670;37.578;2023-02-28T07:08:28;2.47;;;1.60;;
35488;SDS011;21602;55.670;37.578;2023-02-28T07:10:54;2.70;;;1.97;;
35488;SDS011;21602;55.670;37.578;2023-02-28T07:13:21;2.83;;;2.10;;
35488;SDS011;21602;55.670;37.578;2023-02-28T07:15:55;4.03;;;2.37;;
35488;SDS011;21602;55.670;37.578;2023-02-28T07:18:22;3.10;;;2.10;;
35488;SDS011;21602;55.670;37.578;2023-02-28T07:20:48;3.93;;;2.30;;
35488;SDS011;21602;55.670;37.578;2023-02-28T07:23:14;2.90;;;2.30;;
35488;SDS011;21602;55.670;37.578;2023-02-28T07:25:40;3.00;;;1.73;;
35488;SDS011;21602;55.670;37.578;2023-02-28T07:28:05;3.27;;;2.10;;
35488;SDS011;21602;55.670;37.578;2023-02-28T07:30:31;3.07;;;2.30;;
35488;SDS011;21602;55.670;37.578;2023-02-28T07:32:59;3.15;;;2.15;;
35488;SDS011;21602;55.670;37.578;2023-02-28T07:35:25;3.30;;;1.70;;
35488;SDS011;21602;55.670;37.578;2023-02-28T07:37:51;3.73;;;2.67;;
35488;SDS011;21602;55.670;37.578;2023-02-28T07:40:17;2.30;;;1.77;;
35488;SDS011;21602;55.670;37.578;2023-02-28T07:42:43;1.80;;;1.27;;
35488;SDS011;21602;55.670;37.578;2023-02-28T07:45:09;2.87;;;1.90;;
35488;SDS011;21602;55.670;37.578;2023-02-28T07:47:37;4.45;;;2.40;;
35488;SDS011;21602;55.670;37.578;2023-02-28T07:50:05;2.40;;;1.50;;
35488;SDS011;21602;55.670;37.578;2023-02-28T07:52:32;3.17;;;2.38;;
35488;SDS011;21602;55.670;37.578;2023-02-28T07:54:58;4.57;;;1.93;;
35488;SDS011;21602;55.670;37.578;2023-02-28T07:57:24;2.67;;;1.87;;
35488;SDS011;21602;55.670;37.578;2023-02-28T07:59:50;3.13;;;2.20;;
35488;SDS011;21602;55.670;37.578;2023-02-28T08:02:17;3.23;;;2.53;;
35488;SDS011;21602;55.670;37.578;2023-02-28T08:04:44;2.92;;;2.20;;
35488;SDS011;21602;55.670;37.578;2023-02-28T08:07:12;3.13;;;1.67;;
35488;SDS011;21602;55.670;37.578;2023-02-28T08:09:38;5.23;;;2.87;;
35488;SDS011;21602;55.670;37.578;2023-02-28T08:12:06;2.30;;;1.77;;
35488;SDS011;21602;55.670;37.578;2023-02-28T08:14:36;4.20;;;2.08;;
35488;SDS011;21602;55.670;37.578;2023-02-28T08:17:03;2.87;;;2.03;;
35488;SDS011;21602;55.670;37.578;2023-02-28T08:19:29;2.95;;;2.30;;
35488;SDS011;21602;55.670;37.578;2023-02-28T08:21:55;3.28;;;2.28;;
35488;SDS011;21602;55.670;37.578;2023-02-28T08:24:22;4.07;;;1.73;;
35488;SDS011;21602;55.670;37.578;2023-02-28T08:26:48;2.93;;;1.80;;
35488;SDS011;21602;55.670;37.578;2023-02-28T08:29:15;3.95;;;2.30;;
35488;SDS011;21602;55.670;37.578;2023-02-28T08:31:41;3.33;;;2.07;;
35488;SDS011;21602;55.670;37.578;2023-02-28T08:34:09;3.35;;;1.67;;
35488;SDS011;21602;55.670;37.578;2023-02-28T08:36:36;3.30;;;1.83;;
35488;SDS011;21602;55.670;37.578;2023-02-28T08:39:03;2.13;;;1.40;;
35488;SDS011;21602;55.670;37.578;2023-02-28T08:41:29;4.13;;;2.47;;
35488;SDS011;21602;55.670;37.578;2023-02-28T08:43:55;3.72;;;2.38;;
35488;SDS011;21602;55.670;37.578;2023-02-28T08:46:21;3.28;;;1.90;;
35488;SDS011;21602;55.670;37.578;2023-02-28T08:48:47;3.17;;;1.52;;
35488;SDS011;21602;55.670;37.578;2023-02-28T08:51:17;3.47;;;2.90;;
35488;SDS011;21602;55.670;37.578;2023-02-28T08:53:47;3.15;;;2.35;;
35488;SDS011;21602;55.670;37.578;2023-02-28T08:56:15;2.83;;;1.98;;
35488;SDS011;21602;55.670;37.578;2023-02-28T08:58:45;8.20;;;2.50;;
35488;SDS011;21602;55.670;37.578;2023-02-28T09:01:13;7.63;;;2.77;;
35488;SDS011;21602;55.670;37.578;2023-02-28T09:03:56;5.10;;;2.40;;
35488;SDS011;21602;55.670;37.578;2023-02-28T09:06:23;3.75;;;1.92;;
35488;SDS011;21602;55.670;37.578;2023-02-28T09:08:51;4.03;;;2.28;;
35488;SDS011;21602;55.670;37.578;2023-02-28T09:11:18;2.65;;;2.00;;
35488;SDS011;21602;55.670;37.578;2023-02-28T09:13:45;3.53;;;2.65;;
35488;SDS011;21602;55.670;37.578;2023-02-28T09:16:12;6.70;;;2.78;;
35488;SDS011;21602;55.670;37.578;2023-02-28T09:18:40;4.65;;;2.33;;
35488;SDS011;21602;55.670;37.578;2023-02-28T09:21:07;6.38;;;2.42;;
35488;SDS011;21602;55.670;37.578;2023-02-28T09:23:37;3.08;;;2.42;;
35488;SDS011;21602;55.670;37.578;2023-02-28T09:26:05;2.83;;;1.77;;
35488;SDS011;21602;55.670;37.578;2023-02-28T09:28:32;7.25;;;3.42;;
35488;SDS011;21602;55.670;37.578;2023-02-28T09:30:58;5.47;;;2.85;;
35488;SDS011;21602;55.670;37.578;2023-02-28T09:33:24;4.65;;;2.78;;
35488;SDS011;21602;55.670;37.578;2023-02-28T09:35:51;4.10;;;2.58;;
35488;SDS011;21602;55.670;37.578;2023-02-28T09:38:24;5.63;;;3.17;;
35488;SDS011;21602;55.670;37.578;2023-02-28T09:40:52;5.28;;;2.70;;
35488;SDS011;21602;55.670;37.578;2023-02-28T09:43:22;5.60;;;2.70;;
35488;SDS011;21602;55.670;37.578;2023-02-28T09:45:56;4.38;;;2.17;;
35488;SDS011;21602;55.670;37.578;2023-02-28T09:48:32;3.50;;;2.15;;
35488;SDS011;21602;55.670;37.578;2023-02-28T09:51:04;3.92;;;2.63;;
35488;SDS011;21602;55.670;37.578;2023-02-28T09:53:50;4.63;;;2.30;;
35488;SDS011;21602;55.670;37.578;2023-02-28T09:56:50;3.33;;;2.17;;
35488;SDS011;21602;55.670;37.578;2023-02-28T10:01:54;4.15;;;2.47;;
35488;SDS011;21602;55.670;37.578;2023-02-28T10:07:03;3.75;;;2.50;;
35488;SDS011;21602;55.670;37.578;2023-02-28T10:09:45;4.97;;;2.00;;
35488;SDS011;21602;55.670;37.578;2023-02-28T10:12:16;3.53;;;2.10;;
35488;SDS011;21602;55.670;37.578;2023-02-28T10:14:44;5.70;;;1.83;;
35488;SDS011;21602;55.670;37.578;2023-02-28T10:19:56;4.03;;;2.20;;
35488;SDS011;21602;55.670;37.578;2023-02-28T10:22:31;1.58;;;1.45;;
35488;SDS011;21602;55.670;37.578;2023-02-28T10:25:17;2.03;;;1.60;;
35488;SDS011;21602;55.670;37.578;2023-02-28T10:27:45;3.05;;;1.70;;
35488;SDS011;21602;55.670;37.578;2023-02-28T10:30:11;2.80;;;1.92;;
35488;SDS011;21602;55.670;37.578;2023-02-28T10:32:39;3.38;;;1.63;;
35488;SDS011;21602;55.670;37.578;2023-02-28T10:35:18;4.05;;;2.13;;
35488;SDS011;21602;55.670;37.578;2023-02-28T10:37:49;2.03;;;1.65;;
35488;SDS011;21602;55.670;37.578;2023-02-28T10:42:59;4.00;;;2.53;;
35488;SDS011;21602;55.670;37.578;2023-02-28T10:45:56;4.80;;;2.17;;
35488;SDS011;21602;55.670;37.578;2023-02-28T10:51:00;3.03;;;1.88;;
35488;SDS011;21602;55.670;37.578;2023-02-28T10:58:52;5.90;;;2.47;;
35488;SDS011;21602;55.670;37.578;2023-02-28T11:06:23;2.72;;;2.33;;
35488;SDS011;21602;55.670;37.578;2023-02-28T11:09:37;2.97;;;1.80;;
35488;SDS011;21602;55.670;37.578;2023-02-28T11:11:54;4.00;;;2.50;;
35488;SDS011;21602;55.670;37.578;2023-02-28T11:14:21;3.08;;;2.20;;
35488;SDS011;21602;55.670;37.578;2023-02-28T11:16:54;7.30;;;2.65;;
35488;SDS011;21602;55.670;37.578;2023-02-28T11:19:28;4.18;;;2.17;;
35488;SDS011;21602;55.670;37.578;2023-02-28T11:22:01;3.88;;;2.22;;
35488;SDS011;21602;55.670;37.578;2023-02-28T11:24:31;3.97;;;2.67;;
35488;SDS011;21602;55.670;37.578;2023-02-28T11:27:23;3.25;;;2.15;;
35488;SDS011;21602;55.670;37.578;2023-02-28T11:29:56;2.97;;;1.83;;
35488;SDS011;21602;55.670;37.578;2023-02-28T11:32:23;3.42;;;2.13;;
35488;SDS011;21602;55.670;37.578;2023-02-28T11:35:14;3.53;;;2.40;;
35488;SDS011;21602;55.670;37.578;2023-02-28T11:37:47;4.05;;;2.22;;
35488;SDS011;21602;55.670;37.578;2023-02-28T11:40:15;2.78;;;1.88;;
35488;SDS011;21602;55.670;37.578;2023-02-28T11:51:32;3.75;;;2.58;;
35488;SDS011;21602;55.670;37.578;2023-02-28T11:57:03;4.65;;;3.00;;
35488;SDS011;21602;55.670;37.578;2023-02-28T12:10:22;4.35;;;2.70;;
35488;SDS011;21602;55.670;37.578;2023-02-28T12:12:55;2.85;;;2.55;;
35488;SDS011;21602;55.670;37.578;2023-02-28T12:18:08;5.43;;;3.00;;
35488;SDS011;21602;55.670;37.578;2023-02-28T12:21:08;4.35;;;2.70;;
35488;SDS011;21602;55.670;37.578;2023-02-28T12:24:07;5.28;;;3.30;;
35488;SDS011;21602;55.670;37.578;2023-02-28T12:26:48;4.57;;;2.65;;
35488;SDS011;21602;55.670;37.578;2023-02-28T12:29:24;2.88;;;2.13;;
35488;SDS011;21602;55.670;37.578;2023-02-28T12:32:09;4.68;;;2.97;;
35488;SDS011;21602;55.670;37.578;2023-02-28T12:35:11;4.13;;;3.15;;
35488;SDS011;21602;55.670;37.578;2023-02-28T12:40:23;5.90;;;3.13;;
35488;SDS011;21602;55.670;37.578;2023-02-28T12:42:56;3.20;;;2.30;;
35488;SDS011;21602;55.670;37.578;2023-02-28T12:45:34;3.80;;;2.90;;
35488;SDS011;21602;55.670;37.578;2023-02-28T12:51:02;3.95;;;2.53;;
35488;SDS011;21602;55.670;37.578;2023-02-28T12:53:39;6.10;;;3.10;;
35488;SDS011;21602;55.670;37.578;2023-02-28T12:57:22;5.78;;;3.15;;
35488;SDS011;21602;55.670;37.578;2023-02-28T13:13:22;5.68;;;3.00;;
35488;SDS011;21602;55.670;37.578;2023-02-28T13:15:58;2.63;;;2.13;;
35488;SDS011;21602;55.670;37.578;2023-02-28T13:18:34;4.20;;;2.80;;
35488;SDS011;21602;55.670;37.578;2023-02-28T13:21:03;4.00;;;2.72;;
35488;SDS011;21602;55.670;37.578;2023-02-28T13:26:03;3.55;;;2.42;;
35488;SDS011;21602;55.670;37.578;2023-02-28T13:31:15;3.38;;;2.15;;
35488;SDS011;21602;55.670;37.578;2023-02-28T13:38:54;3.47;;;2.55;;
35488;SDS011;21602;55.670;37.578;2023-02-28T13:44:01;3.28;;;1.50;;
35488;SDS011;21602;55.670;37.578;2023-02-28T13:55:18;4.60;;;3.45;;
35488;SDS011;21602;55.670;37.578;2023-02-28T14:03:41;2.23;;;1.83;;
35488;SDS011;21602;55.670;37.578;2023-02-28T14:06:36;4.18;;;2.50;;
35488;SDS011;21602;55.670;37.578;2023-02-28T14:11:38;5.43;;;3.33;;
35488;SDS011;21602;55.670;37.578;2023-02-28T14:14:06;7.85;;;3.15;;
35488;SDS011;21602;55.670;37.578;2023-02-28T14:16:41;2.70;;;2.20;;
35488;SDS011;21602;55.670;37.578;2023-02-28T14:19:17;4.72;;;3.22;;
35488;SDS011;21602;55.670;37.578;2023-02-28T14:32:51;5.20;;;3.08;;
35488;SDS011;21602;55.670;37.578;2023-02-28T14:38:21;3.72;;;2.83;;
35488;SDS011;21602;55.670;37.578;2023-02-28T14:40:52;5.00;;;2.47;;
35488;SDS011;21602;55.670;37.578;2023-02-28T14:43:23;4.40;;;2.70;;
35488;SDS011;21602;55.670;37.578;2023-02-28T14:45:58;3.78;;;2.70;;
35488;SDS011;21602;55.670;37.578;2023-02-28T14:48:26;4.72;;;2.28;;
35488;SDS011;21602;55.670;37.578;2023-02-28T14:50:55;3.28;;;2.35;;
35488;SDS011;21602;55.670;37.578;2023-02-28T14:53:25;3.88;;;2.60;;
35488;SDS011;21602;55.670;37.578;2023-02-28T14:55:53;2.80;;;2.13;;
35488;SDS011;21602;55.670;37.578;2023-02-28T14:58:26;4.85;;;2.60;;
35488;SDS011;21602;55.670;37.578;2023-02-28T15:00:58;4.55;;;2.25;;
35488;SDS011;21602;55.670;37.578;2023-02-28T15:03:33;2.90;;;1.55;;
35488;SDS011;21602;55.670;37.578;2023-02-28T15:06:02;5.53;;;2.40;;
35488;SDS011;21602;55.670;37.578;2023-02-28T15:08:30;2.30;;;1.88;;
35488;SDS011;21602;55.670;37.578;2023-02-28T15:11:07;3.45;;;2.78;;
35488;SDS011;21602;55.670;37.578;2023-02-28T15:16:39;4.38;;;2.53;;
35488;SDS011;21602;55.670;37.578;2023-02-28T15:21:55;3.53;;;2.50;;
35488;SDS011;21602;55.670;37.578;2023-02-28T15:24:40;3.28;;;2.42;;
35488;SDS011;21602;55.670;37.578;2023-02-28T15:27:12;4.20;;;2.70;;
35488;SDS011;21602;55.670;37.578;2023-02-28T15:29:56;5.93;;;2.53;;
35488;SDS011;21602;55.670;37.578;2023-02-28T15:32:42;3.75;;;2.22;;
35488;SDS011;21602;55.670;37.578;2023-02-28T15:37:56;3.20;;;2.50;;
35488;SDS011;21602;55.670;37.578;2023-02-28T15:40:27;3.28;;;2.28;;
35488;SDS011;21602;55.670;37.578;2023-02-28T15:46:12;3.50;;;2.38;;
35488;SDS011;21602;55.670;37.578;2023-02-28T15:48:44;13.10;;;2.60;;
35488;SDS011;21602;55.670;37.578;2023-02-28T15:53:59;3.00;;;2.70;;
35488;SDS011;21602;55.670;37.578;2023-02-28T15:56:28;3.03;;;1.75;;
35488;SDS011;21602;55.670;37.578;2023-02-28T16:01:27;2.30;;;1.90;;
35488;SDS011;21602;55.670;37.578;2023-02-28T16:03:56;4.00;;;2.60;;
35488;SDS011;21602;55.670;37.578;2023-02-28T16:09:25;2.53;;;2.10;;
35488;SDS011;21602;55.670;37.578;2023-02-28T16:11:54;2.95;;;2.17;;
35488;SDS011;21602;55.670;37.578;2023-02-28T16:14:27;3.45;;;2.30;;
35488;SDS011;21602;55.670;37.578;2023-02-28T16:17:05;2.72;;;2.08;;
35488;SDS011;21602;55.670;37.578;2023-02-28T16:19:48;3.97;;;2.15;;
35488;SDS011;21602;55.670;37.578;2023-02-28T16:22:14;2.75;;;2.10;;
35488;SDS011;21602;55.670;37.578;2023-02-28T16:24:40;3.60;;;2.38;;
35488;SDS011;21602;55.670;37.578;2023-02-28T16:27:06;3.53;;;2.28;;
35488;SDS011;21602;55.670;37.578;2023-02-28T16:29:39;3.05;;;2.55;;
35488;SDS011;21602;55.670;37.578;2023-02-28T16:32:06;4.85;;;2.20;;
35488;SDS011;21602;55.670;37.578;2023-02-28T16:34:32;3.83;;;2.15;;
35488;SDS011;21602;55.670;37.578;2023-02-28T16:36:58;2.88;;;2.03;;
35488;SDS011;21602;55.670;37.578;2023-02-28T16:39:24;2.15;;;1.70;;
35488;SDS011;21602;55.670;37.578;2023-02-28T16:41:50;4.65;;;1.67;;
35488;SDS011;21602;55.670;37.578;2023-02-28T16:44:30;2.70;;;1.95;;
35488;SDS011;21602;55.670;37.578;2023-02-28T16:46:59;3.90;;;1.98;;
35488;SDS011;21602;55.670;37.578;2023-02-28T16:49:28;3.53;;;1.95;;
35488;SDS011;21602;55.670;37.578;2023-02-28T16:51:54;1.60;;;1.45;;
35488;SDS011;21602;55.670;37.578;2023-02-28T16:54:21;2.60;;;1.67;;
35488;SDS011;21602;55.670;37.578;2023-02-28T16:56:47;4.22;;;1.90;;
35488;SDS011;21602;55.670;37.578;2023-02-28T16:59:15;1.90;;;1.45;;
35488;SDS011;21602;55.670;37.578;2023-02-28T17:01:45;2.53;;;1.80;;
35488;SDS011;21602;55.670;37.578;2023-02-28T17:04:14;2.55;;;1.67;;
35488;SDS011;21602;55.670;37.578;2023-02-28T17:06:41;1.85;;;1.40;;
35488;SDS011;21602;55.670;37.578;2023-02-28T17:09:25;3.35;;;1.88;;
35488;SDS011;21602;55.670;37.578;2023-02-28T17:11:52;2.08;;;1.85;;
35488;SDS011;21602;55.670;37.578;2023-02-28T17:14:18;3.85;;;2.83;;
35488;SDS011;21602;55.670;37.578;2023-02-28T17:16:44;3.45;;;2.17;;
35488;SDS011;21602;55.670;37.578;2023-02-28T17:19:11;2.47;;;1.70;;
35488;SDS011;21602;55.670;37.578;2023-02-28T17:24:09;2.78;;;1.85;;
35488;SDS011;21602;55.670;37.578;2023-02-28T17:26:38;2.20;;;1.88;;
35488;SDS011;21602;55.670;37.578;2023-02-28T17:29:09;3.80;;;1.98;;
35488;SDS011;21602;55.670;37.578;2023-02-28T17:31:39;4.30;;;2.15;;
35488;SDS011;21602;55.670;37.578;2023-02-28T17:34:05;2.72;;;1.73;;
35488;SDS011;21602;55.670;37.578;2023-02-28T17:36:30;2.10;;;1.50;;
35488;SDS011;21602;55.670;37.578;2023-02-28T17:38:59;2.10;;;1.63;;
35488;SDS011;21602;55.670;37.578;2023-02-28T17:41:25;3.38;;;1.20;;
35488;SDS011;21602;55.670;37.578;2023-02-28T17:43:59;2.17;;;1.40;;
35488;SDS011;21602;55.670;37.578;2023-02-28T17:46:53;1.40;;;1.15;;